Westford, NY (13488)

3:44 AM EDT on April 25, 2015 (GMT -0400)
Worcester Farm | | Change Station
CLOSE
Current Station
Personal Weather Station
Location: Worcester, NY
Elevation: 1759 ft
Nearby Weather Stations

Elev 1759 ft 42.62 °N, 74.75 °W | Updated 3 minutes ago

Clear
Clear
27.3 °F
Feels Like 23 °F
N
4.0
Wind Variable Wind from NW
Gusts 6.0 mph

Today
High -- | Low -- °F
--% Chance of Precip.
Yesterday
High -- | Low -- °F
Precip. -- in
6:02 AM 7:52 PM
Waxing Crescent, 43% visible
Pressure 29.94 in
Visibility 10.0 miles
Clouds Clear
Windchill 23 °F
Dew Point 23 °F
Humidity 82%
Rainfall 0.00 in
Snow Depth Not available.
UV 0 out of 12
Pollen 7.20 out of 12
Air Quality Not available.
Flu Activity Widespread
METAR KRME 250653Z AUTO 32004KT 10SM CLR M02/M06 A2993 RMK AO2 SLP138 T10221056

More Conditions Fewer Conditions

Pressure 29.94 in
Visibility 10.0 miles
Clouds Clear
Windchill 23 °F
Dew Point 23 °F
Humidity 82%
Rainfall 0.00 in
Snow Depth Not available.
UV 0 out of 12
Pollen 7.20 out of 12
Air Quality Not available.
Flu Activity Widespread
METAR KRME 250653Z AUTO 32004KT 10SM CLR M02/M06 A2993 RMK AO2 SLP138 T10221056

More Conditions Fewer Conditions

10-Day Weather Forecast

Almanac

Astronomy

Apr. 25, 2015 Rise Set
Actual Time
Civil Twilight
Nautical Twilight
Astronomical Twilight
Moon
Length of Visible Light
Length of Day
Tomorrow will be .
, % of the Moon is Illuminated

Today's Extremes

State Highs State Lows

Community

WunderPhotos

Upload Photos

1,816,624 photos uploaded!

WunderBlogs® & News

Nearby

Air Quality

  Air Quality AQ Index Pollutant
Not available.

Snow Depth

Station Depth Elevation

Earthquake Activity

City Distance Mag. Time & Date
Minimum magnitude displayed is 2.5.

Coastal Water Temperatures

Place Temperature

Stations

Nearby Weather Stations

Station Location Temp. Windchill Dew Point Humidity Wind Precip. Elev Updated Type